Weather at Pixley-Richards Gilbert Heliport

Public forecast

Using degrees Fahrenheit for public forecast. Weather courtesy of forecast.io.

Closest aviation weather report (METAR) to Pixley-Richards Gilbert Heliport

Closest report is Chandler Municipal Airport, 6.3 nm (11.7 km) SSE. Retrieved 2022/01/26 19:47 UTC (1 hour ago):

KCHD 261947Z VRB06KT 10SM FEW250 19/M03 A3012

Closest aviation forecast (TAF) to Pixley-Richards Gilbert Heliport

Closest forecast is Phoenix Sky Harbor International Airport, 9.3 nm (17.2 km) WNW. Retrieved 2022/01/26 18:22 UTC (2 hours ago):

TAF KPHX 261720Z 2618/2724 08005KT P6SM FEW250 FM270000 29005KT P6SM SCT250 FM270800 10005KT P6SM FEW200 FM272000 29005KT P6SM SKC